createdAt,value
2022-08-20T00:01:21.026Z,20.90
2022-08-20T00:06:29.752Z,22.48
2022-08-20T00:11:36.570Z,23.08
2022-08-20T00:16:43.954Z,28.58
2022-08-20T00:21:50.957Z,23.83
2022-08-20T00:27:09.573Z,21.98
2022-08-20T00:32:15.733Z,21.73
2022-08-20T00:37:25.268Z,23.20
2022-08-20T00:42:33.901Z,27.35
2022-08-20T00:47:41.437Z,23.17
2022-08-20T00:58:35.163Z,20.60
2022-08-20T01:03:47.443Z,20.48
2022-08-20T01:09:07.255Z,20.77
2022-08-20T01:14:32.650Z,22.80
2022-08-20T01:19:45.477Z,23.23
2022-08-20T01:24:57.669Z,18.83
2022-08-20T01:30:14.023Z,18.63
2022-08-20T01:35:26.078Z,20.10
2022-08-20T01:40:46.758Z,19.08
2022-08-20T01:46:01.939Z,27.35
2022-08-20T01:51:19.452Z,19.80
2022-08-20T01:56:31.592Z,21.88
2022-08-20T02:02:03.383Z,24.08
2022-08-20T02:07:09.949Z,23.10
2022-08-20T02:12:19.461Z,23.73
2022-08-20T02:17:29.348Z,20.75
2022-08-20T02:22:49.823Z,25.40
2022-08-20T02:27:58.092Z,21.63
2022-08-20T02:33:06.849Z,22.80
2022-08-20T02:38:13.731Z,27.45
2022-08-20T02:43:28.511Z,22.02
2022-08-20T02:48:35.074Z,20.52
2022-08-20T02:53:45.696Z,22.98
2022-08-20T02:58:52.064Z,22.30
2022-08-20T03:04:11.076Z,20.92
2022-08-20T03:09:20.396Z,18.60
2022-08-20T03:14:26.599Z,29.70
2022-08-20T03:19:37.132Z,24.98
2022-08-20T03:24:43.224Z,23.05
2022-08-20T03:29:52.835Z,20.42
2022-08-20T03:35:03.093Z,27.20
2022-08-20T03:40:11.454Z,29.23
2022-08-20T03:45:20.227Z,21.52
2022-08-20T03:50:31.639Z,25.05
2022-08-20T03:55:54.001Z,23.17
2022-08-20T04:01:00.732Z,27.50
2022-08-20T04:06:07.781Z,27.45
2022-08-20T04:11:17.804Z,23.85
2022-08-20T04:16:23.749Z,24.08
2022-08-20T04:21:40.364Z,25.42
2022-08-20T04:26:57.826Z,29.30
2022-08-20T04:32:17.920Z,28.38
2022-08-20T04:37:32.253Z,27.25
2022-08-20T04:42:57.727Z,27.98
2022-08-20T04:48:07.107Z,39.88
2022-08-20T04:53:31.370Z,24.95
2022-08-20T04:58:50.064Z,25.67
2022-08-20T05:03:59.894Z,24.30
2022-08-20T05:09:10.281Z,29.08
2022-08-20T05:14:18.505Z,26.83
2022-08-20T05:19:39.025Z,23.20
2022-08-20T05:25:06.500Z,27.70
2022-08-20T05:30:16.797Z,28.25
2022-08-20T05:35:26.369Z,37.22
2022-08-20T05:40:42.449Z,23.65
2022-08-20T05:45:56.881Z,28.40
2022-08-20T05:51:01.472Z,23.25
2022-08-20T05:56:11.769Z,22.55
2022-08-20T06:01:16.960Z,27.15
2022-08-20T06:06:44.345Z,22.98
2022-08-20T06:11:53.655Z,26.35
2022-08-20T06:17:08.351Z,24.48
2022-08-20T06:22:27.755Z,20.23
2022-08-20T06:27:38.142Z,19.85
2022-08-20T06:32:45.168Z,21.80
2022-08-20T06:37:49.460Z,19.05
2022-08-20T06:43:02.006Z,20.95
2022-08-20T06:48:15.208Z,23.15
2022-08-20T06:53:37.277Z,19.63
2022-08-20T06:58:59.222Z,17.15
2022-08-20T07:04:11.558Z,23.27
2022-08-20T07:09:16.489Z,18.67
2022-08-20T07:14:43.951Z,22.75
2022-08-20T07:20:00.036Z,26.08
2022-08-20T07:25:11.847Z,22.08
2022-08-20T07:30:55.850Z,22.52
2022-08-20T07:36:07.583Z,20.65
2022-08-20T07:41:15.054Z,19.40
2022-08-20T07:46:24.421Z,20.70
2022-08-20T07:51:44.442Z,21.08
2022-08-20T07:56:49.687Z,27.48
2022-08-20T08:01:58.951Z,20.98
2022-08-20T08:07:03.480Z,21.92
2022-08-20T08:12:11.162Z,21.60
2022-08-20T08:17:21.854Z,21.67
2022-08-20T08:22:27.971Z,20.00
2022-08-20T08:27:35.983Z,17.52
2022-08-20T08:33:04.237Z,20.65
2022-08-20T08:38:09.225Z,17.42
2022-08-20T08:43:21.220Z,19.40
2022-08-20T08:48:35.475Z,18.25
2022-08-20T08:53:48.965Z,16.25
2022-08-20T08:58:55.818Z,15.75
2022-08-20T09:04:05.269Z,18.30
2022-08-20T09:09:29.492Z,18.77
2022-08-20T09:14:34.282Z,17.83
2022-08-20T09:19:52.707Z,17.90
2022-08-20T09:24:57.652Z,18.30
2022-08-20T09:30:06.467Z,19.08
2022-08-20T09:35:14.346Z,19.13
2022-08-20T09:40:21.363Z,19.83
2022-08-20T09:45:33.284Z,18.83
2022-08-20T09:50:49.882Z,18.42
2022-08-20T09:56:09.218Z,16.98
2022-08-20T10:01:27.369Z,18.75
2022-08-20T10:06:37.729Z,17.48
2022-08-20T10:11:46.481Z,20.05
2022-08-20T10:17:06.273Z,18.48
2022-08-20T10:22:21.505Z,20.25
2022-08-20T10:27:26.591Z,18.42
2022-08-20T10:32:34.928Z,19.02
2022-08-20T10:38:09.276Z,20.58
2022-08-20T10:43:30.242Z,20.52
2022-08-20T10:48:40.951Z,21.77
2022-08-20T10:53:50.678Z,21.08
2022-08-20T10:59:01.220Z,21.67
2022-08-20T11:04:15.807Z,23.23
2022-08-20T11:09:31.972Z,23.75
2022-08-20T11:14:38.687Z,25.67
2022-08-20T11:19:47.236Z,32.25
2022-08-20T11:24:56.244Z,26.85
2022-08-20T11:30:06.558Z,28.52
2022-08-20T11:35:41.065Z,28.73
2022-08-20T11:40:47.249Z,24.98
2022-08-20T11:46:01.745Z,27.30
2022-08-20T11:51:17.052Z,29.33
2022-08-20T11:56:48.274Z,25.02
2022-08-20T12:02:12.536Z,26.67
2022-08-20T12:07:24.435Z,27.05
2022-08-20T12:12:39.584Z,27.35
2022-08-20T12:17:52.946Z,25.20
2022-08-20T12:28:25.891Z,27.52
2022-08-20T12:33:49.887Z,26.75
2022-08-20T12:39:08.784Z,26.38
2022-08-20T12:44:15.818Z,24.98
2022-08-20T12:49:20.821Z,23.42
2022-08-20T12:54:32.700Z,25.70
2022-08-20T12:59:41.484Z,24.42
2022-08-20T13:04:52.546Z,27.17
2022-08-20T13:10:01.849Z,21.38
2022-08-20T13:15:18.478Z,25.10
2022-08-20T13:20:55.007Z,25.08
2022-08-20T13:26:04.224Z,23.95
2022-08-20T13:31:30.334Z,22.25
2022-08-20T13:36:37.515Z,23.10
2022-08-20T13:41:44.854Z,22.13
2022-08-20T13:47:03.526Z,21.98
2022-08-20T13:52:16.991Z,21.27
2022-08-20T13:57:27.756Z,19.20
2022-08-20T14:02:48.102Z,20.88
2022-08-20T14:07:52.612Z,21.65
2022-08-20T14:12:59.675Z,22.38
2022-08-20T14:18:16.260Z,22.17
2022-08-20T14:23:21.102Z,23.05
2022-08-20T14:28:33.682Z,23.02
2022-08-20T14:33:44.892Z,20.95
2022-08-20T14:38:55.908Z,21.60
2022-08-20T14:44:08.201Z,21.42
2022-08-20T14:49:16.921Z,19.02
2022-08-20T14:54:21.058Z,19.77
2022-08-20T14:59:28.206Z,18.48
2022-08-20T15:04:34.329Z,20.02
2022-08-20T15:09:41.376Z,20.83
2022-08-20T15:14:49.646Z,21.58
2022-08-20T15:19:59.621Z,21.90
2022-08-20T15:25:07.081Z,19.42
2022-08-20T15:30:15.153Z,21.70
2022-08-20T15:35:25.656Z,21.27
2022-08-20T15:40:35.095Z,17.80
2022-08-20T15:45:49.117Z,21.77
2022-08-20T15:51:15.400Z,18.40
2022-08-20T15:56:34.410Z,20.90
2022-08-20T16:01:55.895Z,19.17
2022-08-20T16:07:13.165Z,19.88
2022-08-20T16:12:25.070Z,19.80
2022-08-20T16:17:37.456Z,22.88
2022-08-20T16:22:50.161Z,21.92
2022-08-20T16:33:55.430Z,16.17
2022-08-20T16:39:08.851Z,17.27
2022-08-20T16:44:22.789Z,16.83
2022-08-20T16:49:31.571Z,18.33
2022-08-20T16:54:45.989Z,16.50
2022-08-20T17:00:11.750Z,17.75
2022-08-20T17:05:17.461Z,14.05
2022-08-20T17:10:49.613Z,15.07
2022-08-20T17:16:03.528Z,20.45
2022-08-20T17:21:23.116Z,15.50
2022-08-20T17:26:37.005Z,19.83
2022-08-20T17:31:45.617Z,15.75
2022-08-20T17:37:13.491Z,19.27
2022-08-20T17:42:33.218Z,19.10
2022-08-20T17:47:53.757Z,18.20
2022-08-20T17:53:05.523Z,21.23
2022-08-20T17:58:23.668Z,20.23
2022-08-20T18:03:32.328Z,20.48
2022-08-20T18:08:46.554Z,26.58
2022-08-20T18:14:24.216Z,28.90
2022-08-20T18:19:54.761Z,28.77
2022-08-20T18:25:08.692Z,23.75
2022-08-20T18:30:26.284Z,24.85
2022-08-20T18:35:35.089Z,25.27
2022-08-20T18:40:48.621Z,36.30
2022-08-20T18:45:57.809Z,28.83
2022-08-20T18:51:25.439Z,26.55
2022-08-20T18:56:51.465Z,37.40
2022-08-20T19:02:12.741Z,46.65
2022-08-20T19:07:19.006Z,38.08
2022-08-20T19:12:58.695Z,29.67
2022-08-20T19:18:17.058Z,29.27
2022-08-20T19:23:39.006Z,48.90
2022-08-20T19:29:27.086Z,31.92
2022-08-20T19:35:00.130Z,43.53
2022-08-20T19:40:16.418Z,30.73
2022-08-20T19:51:21.782Z,38.63
2022-08-20T19:56:29.247Z,30.38
2022-08-20T20:01:41.656Z,30.42
2022-08-20T20:06:59.923Z,31.35
2022-08-20T20:12:24.588Z,30.83
2022-08-20T20:17:48.939Z,33.28
2022-08-20T20:23:21.197Z,35.13
2022-08-20T20:28:31.374Z,32.33
2022-08-20T20:33:44.352Z,34.90
2022-08-20T20:39:00.113Z,34.85
2022-08-20T20:44:07.623Z,37.80
2022-08-20T20:49:30.355Z,32.13
2022-08-20T20:54:54.608Z,38.15
2022-08-20T21:00:10.740Z,31.42
2022-08-20T21:05:27.911Z,31.83
2022-08-20T21:10:48.061Z,32.75
2022-08-20T21:16:01.837Z,30.42
2022-08-20T21:21:12.595Z,41.33
2022-08-20T21:26:19.909Z,37.40
2022-08-20T21:31:27.767Z,37.70
2022-08-20T21:36:44.821Z,36.00
2022-08-20T21:42:12.302Z,44.00
2022-08-20T21:47:35.898Z,50.33
2022-08-20T21:53:00.152Z,42.13
2022-08-20T21:58:18.594Z,35.58
2022-08-20T22:03:28.458Z,44.67
2022-08-20T22:08:35.784Z,45.40
2022-08-20T22:13:42.084Z,41.88
2022-08-20T22:18:48.739Z,35.65
2022-08-20T22:23:56.583Z,38.95
2022-08-20T22:29:10.214Z,42.75
2022-08-20T22:34:19.631Z,38.67
2022-08-20T22:39:28.420Z,48.10
2022-08-20T22:44:40.635Z,49.97
2022-08-20T22:49:49.545Z,41.00
2022-08-20T22:54:55.365Z,41.22
2022-08-20T23:00:04.606Z,34.13
2022-08-20T23:05:13.659Z,36.30
2022-08-20T23:16:05.454Z,34.67
2022-08-20T23:21:22.454Z,63.17
2022-08-20T23:26:52.527Z,45.53
2022-08-20T23:32:04.693Z,37.00
2022-08-20T23:37:11.625Z,43.20
2022-08-20T23:42:25.333Z,37.70
2022-08-20T23:47:48.966Z,37.47
2022-08-20T23:52:55.152Z,44.35
2022-08-20T23:58:14.263Z,41.40
